Time;durP1;ratioP1;P1;durP2;ratioP2;P2;SDS_P1;SDS_P2;PMS_P1;PMS_P2;Temp;Humidity;BMP_temperature;BMP_pressure;BME280_temperature;BME280_humidity;BME280_pressure;Samples;Min_cycle;Max_cycle;Signal;HPM_P1;HPM_P2
2020/12/06 00:01:37;;;;;;;9.98;6.40;;;3.70;99.90;;;;;;5052185;28;20453;-78
2020/12/06 00:04:05;;;;;;;8.85;5.43;;;3.70;99.90;;;;;;5052157;28;20024;-77
2020/12/06 00:06:31;;;;;;;10.07;6.35;;;3.70;99.90;;;;;;5053083;28;20087;-78
2020/12/06 00:08:56;;;;;;;12.65;6.18;;;3.70;99.90;;;;;;5053295;28;20021;-78
2020/12/06 00:11:22;;;;;;;9.57;5.80;;;3.70;99.90;;;;;;5052208;28;20082;-78
2020/12/06 00:13:48;;;;;;;10.73;5.78;;;3.60;99.90;;;;;;5054872;28;20035;-78
2020/12/06 00:16:15;;;;;;;14.40;6.47;;;3.50;99.90;;;;;;5061181;28;20033;-78
2020/12/06 00:18:42;;;;;;;15.00;6.80;;;3.50;99.90;;;;;;5066696;28;20025;-78
2020/12/06 00:21:13;;;;;;;14.18;6.30;;;3.60;99.90;;;;;;5068070;28;20029;-78
2020/12/06 00:23:39;;;;;;;8.77;6.40;;;3.60;99.90;;;;;;5066460;28;20033;-78
2020/12/06 00:26:05;;;;;;;15.57;7.18;;;3.50;99.90;;;;;;5062511;28;20013;-78
2020/12/06 00:28:31;;;;;;;8.93;6.43;;;3.50;99.90;;;;;;5067727;28;20033;-78
2020/12/06 00:30:56;;;;;;;10.20;6.50;;;3.50;99.90;;;;;;5066711;28;20036;-78
2020/12/06 00:33:22;;;;;;;13.73;7.20;;;3.50;99.90;;;;;;5063141;28;20029;-79
2020/12/06 00:35:48;;;;;;;12.88;6.78;;;3.50;99.90;;;;;;5072530;28;20036;-79
2020/12/06 00:38:13;;;;;;;10.55;7.07;;;3.50;99.90;;;;;;5050600;28;20038;-79
2020/12/06 00:40:39;;;;;;;11.77;6.80;;;3.40;99.90;;;;;;5055960;28;20033;-79
2020/12/06 00:43:05;;;;;;;11.95;6.60;;;3.40;99.90;;;;;;5061281;28;20029;-76
2020/12/06 00:45:30;;;;;;;13.07;7.97;;;3.40;99.90;;;;;;5062519;28;20504;-77
2020/12/06 00:47:56;;;;;;;9.07;6.13;;;3.40;99.90;;;;;;5063220;28;20028;-77
2020/12/06 00:50:22;;;;;;;13.98;6.82;;;3.40;99.90;;;;;;5061532;28;20040;-77
2020/12/06 00:52:48;;;;;;;9.90;6.13;;;3.30;99.90;;;;;;5062408;28;20025;-78
2020/12/06 00:55:13;;;;;;;11.75;7.20;;;3.20;99.90;;;;;;5063110;28;20366;-77
2020/12/06 00:57:39;;;;;;;15.30;7.85;;;3.20;99.90;;;;;;5051417;28;20493;-77
2020/12/06 01:00:08;;;;;;;12.27;6.78;;;3.10;99.90;;;;;;5060056;28;20052;-77
2020/12/06 01:02:34;;;;;;;11.82;7.15;;;3.10;99.90;;;;;;5066526;28;20025;-76
2020/12/06 01:05:00;;;;;;;15.75;7.13;;;3.10;99.90;;;;;;5075896;28;20025;-77
2020/12/06 01:07:25;;;;;;;11.13;6.78;;;3.10;99.90;;;;;;5077033;28;20024;-77
2020/12/06 01:09:51;;;;;;;13.35;7.35;;;3.10;99.90;;;;;;5075213;28;20029;-76
2020/12/06 01:12:16;;;;;;;14.82;7.20;;;3.00;99.90;;;;;;5060597;28;20043;-77
2020/12/06 01:14:42;;;;;;;14.77;7.82;;;2.90;99.90;;;;;;5054373;28;20066;-78
2020/12/06 01:17:08;;;;;;;14.27;7.25;;;2.90;99.90;;;;;;5058211;28;20152;-77
2020/12/06 01:19:33;;;;;;;13.45;7.25;;;2.80;99.90;;;;;;5057713;28;20083;-78
2020/12/06 01:21:59;;;;;;;18.52;7.85;;;2.80;99.90;;;;;;5056465;28;20040;-77
2020/12/06 01:24:24;;;;;;;17.30;8.05;;;2.80;99.90;;;;;;5059222;28;20525;-78
2020/12/06 01:26:50;;;;;;;12.63;7.57;;;2.80;99.90;;;;;;5056709;28;20029;-78
2020/12/06 01:29:16;;;;;;;19.95;8.57;;;2.70;99.90;;;;;;5059593;28;20079;-78
2020/12/06 01:31:49;;;;;;;12.98;7.53;;;2.60;99.90;;;;;;5060167;28;20036;-78
2020/12/06 01:34:15;;;;;;;17.08;7.82;;;2.50;99.90;;;;;;5055443;28;20029;-78
2020/12/06 01:36:42;;;;;;;16.10;8.07;;;2.50;99.90;;;;;;5061519;28;20040;-78
2020/12/06 01:39:08;;;;;;;13.93;8.43;;;2.50;99.90;;;;;;5058727;28;20025;-78
2020/12/06 01:41:33;;;;;;;12.40;7.45;;;2.50;99.90;;;;;;5055264;28;20163;-78
2020/12/06 01:44:00;;;;;;;14.43;8.38;;;2.50;99.90;;;;;;5058436;28;20061;-78
2020/12/06 01:46:25;;;;;;;16.13;8.55;;;2.60;99.90;;;;;;5061057;28;20040;-78
2020/12/06 01:48:53;;;;;;;14.65;8.52;;;2.60;99.90;;;;;;5060035;28;20029;-78
2020/12/06 01:51:20;;;;;;;15.73;7.80;;;2.50;99.90;;;;;;5062137;28;20063;-78
2020/12/06 01:53:48;;;;;;;15.50;7.82;;;2.50;99.90;;;;;;5065015;28;20040;-78
2020/12/06 01:56:13;;;;;;;15.85;8.32;;;2.50;99.90;;;;;;5065664;28;20021;-78
2020/12/06 01:58:40;;;;;;;15.00;8.35;;;2.50;99.90;;;;;;5053081;28;20074;-78
2020/12/06 02:01:08;;;;;;;15.38;8.43;;;2.60;99.90;;;;;;5061800;28;20021;-78
2020/12/06 02:03:33;;;;;;;14.38;8.25;;;2.60;99.90;;;;;;5064656;28;20021;-78
2020/12/06 02:05:59;;;;;;;16.00;8.32;;;2.50;99.90;;;;;;5063046;28;20051;-78
2020/12/06 02:08:25;;;;;;;15.57;8.43;;;2.50;99.90;;;;;;5065255;28;20032;-78
2020/12/06 02:10:50;;;;;;;22.02;9.77;;;2.50;99.90;;;;;;5066943;28;20027;-78
2020/12/06 02:13:16;;;;;;;16.10;9.23;;;2.50;99.90;;;;;;5066730;28;20040;-78
2020/12/06 02:15:42;;;;;;;15.23;7.72;;;2.50;99.90;;;;;;5069865;28;20083;-78
2020/12/06 02:18:07;;;;;;;19.13;9.73;;;2.50;99.90;;;;;;5068638;28;20033;-78
2020/12/06 02:20:33;;;;;;;18.48;9.68;;;2.50;99.90;;;;;;5071493;28;20029;-78
2020/12/06 02:22:58;;;;;;;17.88;8.25;;;2.40;99.90;;;;;;5069846;28;20021;-78
2020/12/06 02:25:24;;;;;;;16.20;8.73;;;2.40;99.90;;;;;;5070222;28;20040;-78
2020/12/06 02:27:50;;;;;;;20.33;9.45;;;2.40;99.90;;;;;;5070402;28;20025;-78
2020/12/06 02:30:15;;;;;;;18.63;8.70;;;2.40;99.90;;;;;;5070373;28;20018;-78
2020/12/06 02:32:41;;;;;;;18.65;9.30;;;2.40;99.90;;;;;;5071136;28;20032;-78
2020/12/06 02:35:06;;;;;;;19.30;8.63;;;2.40;99.90;;;;;;5069242;28;20025;-78
2020/12/06 02:37:32;;;;;;;13.70;8.73;;;2.40;99.90;;;;;;5069432;28;20043;-78
2020/12/06 02:39:58;;;;;;;15.18;8.07;;;2.40;99.90;;;;;;5069493;28;20021;-76
2020/12/06 02:42:23;;;;;;;18.45;9.38;;;2.40;99.90;;;;;;5064265;28;20021;-77
2020/12/06 02:44:49;;;;;;;16.90;9.38;;;2.40;99.90;;;;;;5067225;28;20021;-77
2020/12/06 02:47:15;;;;;;;25.38;9.38;;;2.50;99.90;;;;;;5075475;28;20041;-77
2020/12/06 02:49:40;;;;;;;17.98;9.57;;;2.50;99.90;;;;;;5075795;28;20064;-77
2020/12/06 02:52:07;;;;;;;24.75;10.38;;;2.50;99.90;;;;;;5075160;28;20032;-78
2020/12/06 02:54:33;;;;;;;17.45;9.32;;;2.60;99.90;;;;;;5075022;28;20097;-77
2020/12/06 02:56:59;;;;;;;16.80;9.57;;;2.60;99.90;;;;;;5067561;28;20028;-77
2020/12/06 02:59:25;;;;;;;20.55;9.25;;;2.60;99.90;;;;;;5074516;28;20021;-77
2020/12/06 03:01:50;;;;;;;21.90;9.02;;;2.60;99.90;;;;;;5063206;28;20444;-77
2020/12/06 03:04:16;;;;;;;16.02;8.98;;;2.60;99.90;;;;;;5056994;28;20037;-77
2020/12/06 03:06:41;;;;;;;17.75;9.68;;;2.60;99.90;;;;;;5056251;28;20389;-77
2020/12/06 03:09:07;;;;;;;15.13;8.57;;;2.50;99.90;;;;;;5054815;28;20059;-77
2020/12/06 03:11:32;;;;;;;13.07;7.82;;;2.60;99.90;;;;;;5054610;28;20025;-77
2020/12/06 03:13:58;;;;;;;17.98;9.18;;;2.60;99.90;;;;;;5050218;28;20117;-77
2020/12/06 03:16:24;;;;;;;17.60;8.48;;;2.60;99.90;;;;;;5053342;28;20021;-77
2020/12/06 03:18:50;;;;;;;15.88;9.52;;;2.60;99.90;;;;;;5057221;28;20083;-77
2020/12/06 03:21:16;;;;;;;17.85;8.98;;;2.60;99.90;;;;;;5056162;28;20401;-77
2020/12/06 03:23:41;;;;;;;19.88;9.38;;;2.60;99.90;;;;;;5056986;28;20028;-78
2020/12/06 03:26:07;;;;;;;15.45;9.05;;;2.60;99.90;;;;;;5055240;28;20021;-77
2020/12/06 03:28:33;;;;;;;20.13;8.13;;;2.60;99.90;;;;;;5054929;28;20033;-77
2020/12/06 03:30:59;;;;;;;18.65;9.20;;;2.70;99.90;;;;;;5054789;28;20029;-77
2020/12/06 03:33:24;;;;;;;23.73;9.77;;;2.50;99.90;;;;;;5053997;28;20086;-77
2020/12/06 03:35:50;;;;;;;18.02;9.95;;;2.50;99.90;;;;;;5053642;28;20122;-77
2020/12/06 03:38:16;;;;;;;16.60;8.60;;;2.40;99.90;;;;;;5050035;28;20033;-77
2020/12/06 03:40:41;;;;;;;16.50;8.75;;;2.40;99.90;;;;;;5056593;28;20067;-77
2020/12/06 03:43:07;;;;;;;16.15;8.68;;;2.40;99.90;;;;;;5054486;28;20021;-77
2020/12/06 03:45:33;;;;;;;17.42;9.27;;;2.40;99.90;;;;;;5054298;28;20540;-77
2020/12/06 03:47:58;;;;;;;20.00;9.27;;;2.30;99.90;;;;;;5053136;28;20144;-77
2020/12/06 03:50:24;;;;;;;19.48;9.98;;;2.30;99.90;;;;;;5047735;28;20481;-77
2020/12/06 03:52:50;;;;;;;18.10;9.18;;;2.30;99.90;;;;;;5060836;28;21370;-77
2020/12/06 03:55:16;;;;;;;17.52;9.07;;;2.20;99.90;;;;;;5059292;28;20041;-77
2020/12/06 03:57:42;;;;;;;20.83;9.85;;;2.20;99.90;;;;;;5057660;28;20024;-77
2020/12/06 04:00:08;;;;;;;21.85;10.57;;;2.20;99.90;;;;;;5051060;28;20377;-77
2020/12/06 04:02:33;;;;;;;18.90;9.38;;;2.20;99.90;;;;;;5053937;28;20033;-77
2020/12/06 04:04:59;;;;;;;20.90;11.05;;;2.30;99.90;;;;;;5053225;28;20040;-77
2020/12/06 04:07:24;;;;;;;20.60;10.15;;;2.30;99.90;;;;;;5054874;28;20111;-77
2020/12/06 04:09:50;;;;;;;20.10;11.00;;;2.30;99.90;;;;;;5052514;28;20513;-79
2020/12/06 04:12:15;;;;;;;19.52;10.95;;;2.40;99.90;;;;;;5055074;28;20158;-78
2020/12/06 04:14:41;;;;;;;22.65;11.30;;;2.40;99.90;;;;;;5043258;28;20044;-78
2020/12/06 04:17:07;;;;;;;19.20;10.27;;;2.40;99.90;;;;;;5054220;28;20033;-78
2020/12/06 04:19:32;;;;;;;17.35;10.23;;;2.40;99.90;;;;;;5055003;28;20510;-78
2020/12/06 04:21:58;;;;;;;21.50;12.15;;;2.30;99.90;;;;;;5054375;28;20021;-78
2020/12/06 04:24:24;;;;;;;20.33;10.73;;;2.30;99.90;;;;;;5055462;28;20025;-79
2020/12/06 04:26:49;;;;;;;26.33;12.88;;;2.30;99.90;;;;;;5056452;28;20025;-79
2020/12/06 04:29:15;;;;;;;20.75;10.30;;;2.30;99.90;;;;;;5071285;28;20036;-79
2020/12/06 04:31:40;;;;;;;19.88;11.05;;;2.30;99.90;;;;;;5075975;28;20028;-78
2020/12/06 04:34:06;;;;;;;19.85;10.30;;;2.30;99.90;;;;;;5076029;28;20048;-79
2020/12/06 04:36:32;;;;;;;26.80;11.95;;;2.40;99.90;;;;;;5076608;28;20045;-78
2020/12/06 04:38:58;;;;;;;20.23;10.32;;;2.50;99.90;;;;;;5075946;28;20041;-76
2020/12/06 04:41:25;;;;;;;18.25;10.55;;;2.40;99.90;;;;;;5078183;28;20045;-77
2020/12/06 04:43:51;;;;;;;21.13;10.20;;;2.40;99.90;;;;;;5068740;28;20038;-76
2020/12/06 04:46:18;;;;;;;21.77;10.02;;;2.40;99.90;;;;;;5058478;28;20048;-76
2020/12/06 04:49:04;;;;;;;16.50;9.45;;;2.40;99.90;;;;;;5055617;28;20017;-77
2020/12/06 04:51:43;;;;;;;17.40;9.32;;;2.40;99.90;;;;;;5054074;28;20470;-77
2020/12/06 04:54:10;;;;;;;16.17;9.18;;;2.40;99.90;;;;;;5055158;28;20057;-78
2020/12/06 04:56:38;;;;;;;16.63;9.63;;;2.30;99.90;;;;;;5053228;28;20029;-77
2020/12/06 04:59:04;;;;;;;13.55;8.48;;;2.30;99.90;;;;;;5054054;28;20029;-77
2020/12/06 05:01:38;;;;;;;15.38;9.00;;;2.30;99.90;;;;;;5051843;28;20021;-77
2020/12/06 05:04:09;;;;;;;17.23;9.40;;;2.30;99.90;;;;;;5050970;28;20047;-77
2020/12/06 05:06:38;;;;;;;17.75;9.38;;;2.30;99.90;;;;;;5050663;28;20033;-77
2020/12/06 05:09:08;;;;;;;17.70;9.50;;;2.40;99.90;;;;;;5040576;28;20030;-77
2020/12/06 05:11:35;;;;;;;16.75;9.05;;;2.30;99.90;;;;;;5045855;28;20359;-77
2020/12/06 05:14:01;;;;;;;16.70;9.40;;;2.20;99.90;;;;;;5053105;28;20104;-77
2020/12/06 05:16:28;;;;;;;19.55;10.80;;;2.30;99.90;;;;;;5045048;28;20124;-77
2020/12/06 05:18:53;;;;;;;16.08;9.10;;;2.30;99.90;;;;;;5038654;28;20041;-77
2020/12/06 05:21:31;;;;;;;19.45;10.35;;;2.30;99.90;;;;;;5049157;28;20428;-77
2020/12/06 05:23:57;;;;;;;17.73;9.25;;;2.30;99.90;;;;;;5050027;28;20025;-78
2020/12/06 05:26:22;;;;;;;15.32;9.05;;;2.10;99.90;;;;;;5049432;28;20091;-77
2020/12/06 05:28:48;;;;;;;21.27;10.55;;;2.10;99.90;;;;;;5047554;28;20380;-78
2020/12/06 05:31:14;;;;;;;18.98;10.00;;;2.10;99.90;;;;;;5051409;28;20037;-78
2020/12/06 05:33:39;;;;;;;18.48;9.52;;;2.10;99.90;;;;;;5046463;28;20474;-78
2020/12/06 05:36:05;;;;;;;16.35;9.73;;;2.10;99.90;;;;;;5053846;28;20033;-78
2020/12/06 05:38:32;;;;;;;18.27;9.55;;;2.20;99.90;;;;;;5041765;28;20128;-78
2020/12/06 05:40:58;;;;;;;19.70;9.65;;;2.20;99.90;;;;;;5052483;28;20033;-78
2020/12/06 05:43:28;;;;;;;19.88;10.60;;;2.20;99.90;;;;;;5051336;28;20455;-78
2020/12/06 05:46:07;;;;;;;14.57;9.40;;;2.20;99.90;;;;;;5057525;28;20021;-78
2020/12/06 05:48:33;;;;;;;16.40;8.75;;;2.20;99.90;;;;;;5057032;28;20064;-78
2020/12/06 05:51:00;;;;;;;18.48;9.35;;;2.20;99.90;;;;;;5052506;28;20064;-78
2020/12/06 05:53:27;;;;;;;13.30;8.75;;;2.20;99.90;;;;;;5055810;28;20128;-78
2020/12/06 05:56:08;;;;;;;18.08;10.10;;;2.20;99.90;;;;;;5052306;28;20060;-78
2020/12/06 05:58:34;;;;;;;18.25;10.20;;;2.20;99.90;;;;;;5051086;28;20942;-77
2020/12/06 06:01:01;;;;;;;15.77;8.60;;;2.20;99.90;;;;;;5050418;28;20021;-78
2020/12/06 06:03:34;;;;;;;15.10;8.90;;;2.20;99.90;;;;;;5052400;28;20394;-77
2020/12/06 06:06:05;;;;;;;16.60;8.90;;;2.30;99.90;;;;;;5053473;28;20028;-78
2020/12/06 06:08:38;;;;;;;18.52;8.98;;;2.30;99.90;;;;;;5042288;28;20056;-77
2020/12/06 06:11:25;;;;;;;16.70;9.85;;;2.30;99.90;;;;;;5059870;28;20063;-78
2020/12/06 06:14:00;;;;;;;15.82;9.15;;;2.30;99.90;;;;;;5071576;28;20057;-77
2020/12/06 06:16:28;;;;;;;15.40;10.00;;;2.30;99.90;;;;;;5075296;28;20071;-77
2020/12/06 06:18:55;;;;;;;;;;;2.30;99.90;;;;;;5071050;28;20124;-78
2020/12/06 06:21:33;;;;;;;19.80;9.57;;;2.30;99.90;;;;;;5074455;28;19920;-77
2020/12/06 06:24:08;;;;;;;18.63;9.90;;;2.30;99.90;;;;;;5076468;28;20016;-78
2020/12/06 06:26:38;;;;;;;17.70;10.52;;;2.30;99.90;;;;;;5072277;28;20040;-76
2020/12/06 06:29:17;;;;;;;17.55;10.20;;;2.30;99.90;;;;;;5056279;28;20089;-77
2020/12/06 06:31:51;;;;;;;19.73;10.77;;;2.30;99.90;;;;;;5053228;28;20037;-77
2020/12/06 06:34:21;;;;;;;16.27;9.73;;;2.20;99.90;;;;;;5052881;28;20033;-76
2020/12/06 06:36:47;;;;;;;16.85;9.40;;;2.30;99.90;;;;;;5069074;28;20029;-77
2020/12/06 06:39:22;;;;;;;19.90;10.38;;;2.20;99.90;;;;;;5044661;28;20044;-77
2020/12/06 06:42:07;;;;;;;19.05;9.70;;;2.30;99.90;;;;;;5050837;28;20059;-78
2020/12/06 06:44:39;;;;;;;15.80;8.77;;;2.20;99.90;;;;;;5040447;28;20060;-78
2020/12/06 06:47:07;;;;;;;18.00;10.25;;;2.20;99.90;;;;;;5049105;28;20025;-78
2020/12/06 06:49:53;;;;;;;18.17;10.43;;;2.30;99.90;;;;;;5050058;28;20028;-78
2020/12/06 06:52:19;;;;;;;17.38;9.93;;;2.30;99.90;;;;;;5042251;28;20132;-77
2020/12/06 06:54:48;;;;;;;16.42;9.65;;;2.30;99.90;;;;;;5054318;28;20029;-77
2020/12/06 06:57:15;;;;;;;18.98;11.07;;;2.30;99.90;;;;;;5034830;28;20028;-77
2020/12/06 06:59:43;;;;;;;19.80;9.88;;;2.40;99.90;;;;;;5047531;28;20029;-77
2020/12/06 07:02:38;;;;;;;18.48;9.73;;;2.30;99.90;;;;;;5051025;28;20056;-77
2020/12/06 07:05:11;;;;;;;18.00;9.60;;;2.30;99.90;;;;;;5045085;28;20024;-77
2020/12/06 07:07:49;;;;;;;17.83;9.60;;;2.30;99.90;;;;;;5036239;28;20547;-77
2020/12/06 07:10:17;;;;;;;20.40;10.60;;;2.30;99.90;;;;;;5039110;28;20051;-77
2020/12/06 07:12:53;;;;;;;15.52;9.65;;;2.40;99.90;;;;;;5050246;28;20047;-77
2020/12/06 07:15:21;;;;;;;19.42;9.60;;;2.40;99.90;;;;;;5050984;28;20445;-77
2020/12/06 07:17:48;;;;;;;19.52;9.82;;;2.40;99.90;;;;;;5056837;28;20064;-78
2020/12/06 07:20:16;;;;;;;19.10;10.90;;;2.40;99.90;;;;;;5050409;28;20017;-78
2020/12/06 07:22:42;;;;;;;13.63;8.63;;;2.50;99.90;;;;;;5049948;28;20037;-78
2020/12/06 07:25:10;;;;;;;17.52;9.45;;;2.50;99.90;;;;;;5034307;28;20034;-78
2020/12/06 07:27:37;;;;;;;18.38;9.38;;;2.50;99.90;;;;;;5053858;28;20541;-78
2020/12/06 07:30:14;;;;;;;15.90;9.70;;;2.50;99.90;;;;;;5053634;28;20025;-78
2020/12/06 07:32:40;;;;;;;17.30;10.25;;;2.40;99.90;;;;;;5052663;28;20381;-78
2020/12/06 07:35:08;;;;;;;15.68;9.27;;;2.50;99.90;;;;;;5054905;28;20395;-78
2020/12/06 07:37:34;;;;;;;19.70;10.02;;;2.40;99.90;;;;;;5053292;28;20032;-78
2020/12/06 07:40:05;;;;;;;18.02;9.75;;;2.30;99.90;;;;;;5053801;28;20166;-78
2020/12/06 07:42:30;;;;;;;17.00;9.98;;;2.30;99.90;;;;;;5055464;28;20519;-78
2020/12/06 07:44:58;;;;;;;18.65;10.95;;;2.30;99.90;;;;;;5067224;28;20060;-78
2020/12/06 07:47:24;;;;;;;21.73;11.40;;;2.30;99.90;;;;;;5073997;28;20036;-78
2020/12/06 07:49:55;;;;;;;21.05;10.98;;;2.30;99.90;;;;;;5074061;28;20029;-77
2020/12/06 07:52:23;;;;;;;18.08;10.82;;;2.30;99.90;;;;;;5075693;28;20016;-76
2020/12/06 07:55:06;;;;;;;18.83;11.43;;;2.40;99.90;;;;;;5055624;28;20481;-78
2020/12/06 07:57:49;;;;;;;20.50;11.32;;;2.40;99.90;;;;;;5054513;28;20040;-78
2020/12/06 08:00:19;;;;;;;21.05;11.57;;;2.40;99.90;;;;;;5055768;28;20022;-78
2020/12/06 08:02:58;;;;;;;22.92;11.27;;;2.40;99.90;;;;;;5038289;28;20112;-78
2020/12/06 08:05:27;;;;;;;23.10;11.07;;;2.50;99.90;;;;;;5046266;28;20050;-78
2020/12/06 08:08:12;;;;;;;20.75;10.75;;;2.50;99.90;;;;;;5054260;28;20024;-77
2020/12/06 08:10:40;;;;;;;18.95;10.35;;;2.50;99.90;;;;;;5047023;28;20493;-78
2020/12/06 08:13:10;;;;;;;22.47;11.67;;;2.50;99.90;;;;;;5045782;28;20120;-78
2020/12/06 08:15:36;;;;;;;22.27;10.57;;;2.60;99.90;;;;;;5040021;28;20279;-78
2020/12/06 08:18:11;;;;;;;18.42;11.25;;;2.60;99.90;;;;;;5053176;28;20084;-79
2020/12/06 08:20:37;;;;;;;18.27;10.52;;;2.60;99.90;;;;;;5052560;28;20061;-79
2020/12/06 08:23:03;;;;;;;21.92;11.02;;;2.60;99.90;;;;;;5051760;28;20488;-80
2020/12/06 08:25:30;;;;;;;24.23;11.75;;;2.60;99.90;;;;;;5054142;28;20059;-78
2020/12/06 08:27:58;;;;;;;21.02;11.50;;;2.70;99.90;;;;;;5042940;28;20037;-78
2020/12/06 08:30:27;;;;;;;18.10;10.73;;;2.70;99.90;;;;;;5051160;28;20037;-78
2020/12/06 08:33:04;;;;;;;24.02;11.77;;;2.80;99.90;;;;;;5052064;28;20048;-80
2020/12/06 08:35:48;;;;;;;21.10;11.45;;;2.70;99.90;;;;;;5052503;28;20075;-78
2020/12/06 08:38:21;;;;;;;17.38;11.00;;;2.70;99.90;;;;;;5052194;28;20450;-79
2020/12/06 08:40:59;;;;;;;17.48;9.85;;;2.70;99.90;;;;;;5051059;28;20362;-78
2020/12/06 08:43:59;;;;;;;23.02;11.73;;;2.70;99.90;;;;;;5052237;28;20021;-78
2020/12/06 08:46:25;;;;;;;18.90;10.23;;;2.80;99.90;;;;;;5047009;28;20036;-78
2020/12/06 08:48:53;;;;;;;20.45;10.75;;;2.80;99.90;;;;;;5048407;28;20037;-78
2020/12/06 08:51:33;;;;;;;20.70;11.23;;;2.80;99.90;;;;;;5053142;28;20025;-78
2020/12/06 08:54:00;;;;;;;24.20;12.93;;;2.80;99.90;;;;;;5051599;28;20025;-78
2020/12/06 08:56:34;;;;;;;20.75;11.10;;;2.70;99.90;;;;;;5051891;28;20458;-78
2020/12/06 08:59:11;;;;;;;22.25;11.88;;;2.80;99.90;;;;;;5053772;28;20037;-78
2020/12/06 09:01:53;;;;;;;28.90;12.05;;;2.90;99.90;;;;;;5052020;28;20021;-79
2020/12/06 09:04:20;;;;;;;19.98;11.75;;;2.70;99.90;;;;;;5036499;28;20030;-79
2020/12/06 09:06:47;;;;;;;25.95;12.90;;;2.70;99.90;;;;;;5049287;28;20474;-79
2020/12/06 09:09:13;;;;;;;22.85;11.82;;;2.80;99.90;;;;;;5041089;28;20041;-79
2020/12/06 09:11:39;;;;;;;21.90;11.23;;;2.90;99.90;;;;;;5052829;28;20040;-79
2020/12/06 09:14:05;;;;;;;22.73;12.10;;;2.90;99.90;;;;;;5051634;28;20565;-79
2020/12/06 09:16:31;;;;;;;26.20;12.80;;;3.00;99.90;;;;;;5043394;28;20037;-79
2020/12/06 09:18:57;;;;;;;24.55;12.30;;;2.90;99.90;;;;;;5057296;28;20052;-78
2020/12/06 09:21:23;;;;;;;26.67;12.48;;;2.90;99.90;;;;;;5073648;28;20052;-78
2020/12/06 09:23:49;;;;;;;22.42;12.32;;;2.90;99.90;;;;;;5075530;28;20073;-78
2020/12/06 09:26:14;;;;;;;23.10;12.70;;;2.80;99.90;;;;;;5073333;28;20037;-78
2020/12/06 09:28:40;;;;;;;19.48;11.52;;;2.90;99.90;;;;;;5072237;28;20005;-78
2020/12/06 09:31:06;;;;;;;21.67;11.15;;;3.00;99.90;;;;;;5075583;28;20087;-79
2020/12/06 09:33:32;;;;;;;22.67;12.27;;;3.20;99.90;;;;;;5070208;28;20040;-78
2020/12/06 09:35:58;;;;;;;23.73;12.27;;;3.20;99.90;;;;;;5051275;28;20032;-78
2020/12/06 09:38:24;;;;;;;21.25;11.25;;;3.30;99.90;;;;;;5053584;28;20044;-79
2020/12/06 09:40:50;;;;;;;24.00;12.02;;;3.50;99.90;;;;;;5049663;28;20104;-79
2020/12/06 09:43:16;;;;;;;21.42;11.52;;;3.60;99.90;;;;;;5050448;28;20202;-79
2020/12/06 09:45:42;;;;;;;24.52;11.35;;;3.60;99.90;;;;;;5051214;28;20612;-78
2020/12/06 09:48:08;;;;;;;18.75;10.07;;;3.60;99.90;;;;;;5049460;28;20378;-77
2020/12/06 09:50:34;;;;;;;26.25;12.85;;;3.70;99.90;;;;;;5050238;28;20025;-78
2020/12/06 09:53:00;;;;;;;24.27;11.20;;;3.80;99.90;;;;;;5048966;28;20389;-77
2020/12/06 09:55:25;;;;;;;21.55;10.60;;;3.90;99.90;;;;;;5050380;28;20051;-77
2020/12/06 09:57:51;;;;;;;21.58;10.32;;;3.90;99.90;;;;;;5051224;28;20281;-77
2020/12/06 10:00:17;;;;;;;18.85;11.32;;;3.90;99.90;;;;;;5051134;28;20021;-78
2020/12/06 10:02:43;;;;;;;19.90;11.20;;;4.00;99.90;;;;;;5051807;28;20021;-78
2020/12/06 10:05:10;;;;;;;20.52;11.13;;;4.00;99.90;;;;;;5051755;28;20071;-77
2020/12/06 10:07:35;;;;;;;23.73;11.98;;;4.00;99.90;;;;;;5051558;28;20425;-77
2020/12/06 10:10:01;;;;;;;21.23;11.27;;;4.00;99.90;;;;;;5051835;28;20029;-77
2020/12/06 10:12:27;;;;;;;23.67;11.45;;;4.00;99.90;;;;;;5050225;28;20049;-77
2020/12/06 10:14:52;;;;;;;25.58;11.68;;;4.10;99.90;;;;;;5052272;28;20028;-78
2020/12/06 10:17:18;;;;;;;22.92;11.65;;;4.20;99.90;;;;;;5050860;28;20120;-77
2020/12/06 10:19:44;;;;;;;22.67;11.60;;;4.20;99.90;;;;;;5050134;28;20076;-78
2020/12/06 10:22:09;;;;;;;27.40;12.60;;;4.30;99.90;;;;;;5050297;28;20029;-78
2020/12/06 10:24:35;;;;;;;33.47;12.88;;;4.30;99.90;;;;;;5051345;28;20025;-78
2020/12/06 10:27:01;;;;;;;20.95;11.73;;;4.30;99.90;;;;;;5050643;28;20074;-78
2020/12/06 10:29:26;;;;;;;23.73;13.13;;;4.20;99.90;;;;;;5049806;28;20397;-77
2020/12/06 10:31:54;;;;;;;22.23;11.57;;;4.00;99.90;;;;;;5049215;28;20067;-76
2020/12/06 10:34:20;;;;;;;25.17;12.60;;;4.10;99.90;;;;;;5042211;28;20421;-79
2020/12/06 10:36:55;;;;;;;23.45;12.18;;;4.00;99.90;;;;;;5044517;28;20048;-81
2020/12/06 10:39:22;;;;;;;24.73;12.10;;;4.00;99.90;;;;;;5048653;28;20138;-78
2020/12/06 10:41:51;;;;;;;25.58;12.48;;;4.00;99.90;;;;;;5050221;28;20041;-77
2020/12/06 10:44:17;;;;;;;20.80;11.55;;;4.10;99.90;;;;;;5050044;28;20036;-77
2020/12/06 10:46:44;;;;;;;24.48;11.93;;;4.10;99.90;;;;;;5051601;28;20021;-77
2020/12/06 10:49:11;;;;;;;23.13;11.57;;;4.20;99.90;;;;;;5052091;28;20028;-78
2020/12/06 10:51:41;;;;;;;22.83;12.85;;;4.30;99.90;;;;;;5050834;28;20485;-78
2020/12/06 10:54:07;;;;;;;25.10;12.10;;;4.50;99.90;;;;;;5050274;28;20505;-77
2020/12/06 10:56:33;;;;;;;23.10;11.98;;;4.50;99.90;;;;;;5040502;28;20047;-77
2020/12/06 10:58:59;;;;;;;22.83;12.45;;;4.60;99.90;;;;;;5060787;28;20382;-77
2020/12/06 11:01:28;;;;;;;23.50;11.90;;;4.50;99.90;;;;;;5068402;28;20040;-77
2020/12/06 11:03:55;;;;;;;23.58;11.65;;;4.50;99.90;;;;;;5072245;28;20039;-76
2020/12/06 11:06:23;;;;;;;21.92;11.55;;;4.50;99.90;;;;;;5078110;28;20032;-78
2020/12/06 11:08:49;;;;;;;23.40;12.07;;;4.50;99.90;;;;;;5080310;28;20025;-77
2020/12/06 11:11:17;;;;;;;28.33;12.57;;;4.60;99.90;;;;;;5071325;28;20021;-76
2020/12/06 11:13:44;;;;;;;26.13;13.23;;;4.70;99.90;;;;;;5072587;28;20047;-76
2020/12/06 11:16:13;;;;;;;23.67;11.68;;;4.70;99.90;;;;;;5059356;28;20025;-77
2020/12/06 11:18:39;;;;;;;23.50;12.90;;;4.80;99.90;;;;;;5054411;28;20045;-76
2020/12/06 11:21:05;;;;;;;20.90;11.77;;;4.80;99.90;;;;;;5052257;28;20107;-78
2020/12/06 11:23:30;;;;;;;25.67;13.38;;;4.80;99.90;;;;;;5048929;28;20025;-78
2020/12/06 11:25:56;;;;;;;25.45;12.85;;;4.70;99.90;;;;;;5050314;28;20037;-77
2020/12/06 11:28:22;;;;;;;28.85;12.23;;;4.90;99.90;;;;;;5050491;28;20428;-78
2020/12/06 11:30:47;;;;;;;24.17;12.00;;;4.90;99.90;;;;;;5049403;28;20079;-78
2020/12/06 11:33:13;;;;;;;24.13;12.63;;;4.80;99.90;;;;;;5051080;28;20017;-77
2020/12/06 11:35:39;;;;;;;25.13;12.57;;;4.80;99.90;;;;;;5049904;28;20508;-77
2020/12/06 11:38:05;;;;;;;27.92;14.20;;;4.80;99.90;;;;;;5049286;28;20029;-79
2020/12/06 11:40:31;;;;;;;26.10;12.77;;;4.80;99.90;;;;;;5048875;28;20037;-77
2020/12/06 11:42:57;;;;;;;26.70;13.68;;;4.80;99.90;;;;;;5051486;28;20017;-78
2020/12/06 11:45:22;;;;;;;27.30;12.48;;;4.90;99.90;;;;;;5047453;28;20040;-78
2020/12/06 11:47:48;;;;;;;19.58;11.88;;;4.90;99.90;;;;;;5038741;28;20025;-78
2020/12/06 11:50:14;;;;;;;27.90;13.57;;;4.70;99.90;;;;;;5046545;28;20061;-78
2020/12/06 11:52:40;;;;;;;23.83;12.82;;;4.90;99.90;;;;;;5050674;28;20021;-79
2020/12/06 11:55:06;;;;;;;25.73;12.95;;;5.00;99.90;;;;;;5048654;28;20033;-79
2020/12/06 11:57:31;;;;;;;23.33;12.10;;;5.00;99.90;;;;;;5049636;28;20191;-78
2020/12/06 11:59:57;;;;;;;23.35;13.10;;;5.00;99.90;;;;;;5049859;28;20488;-78
2020/12/06 12:02:22;;;;;;;26.27;12.45;;;5.00;99.90;;;;;;5051184;28;20031;-78
2020/12/06 12:04:49;;;;;;;21.52;12.02;;;5.00;99.90;;;;;;5049183;28;20065;-78
2020/12/06 12:07:15;;;;;;;27.58;12.52;;;5.10;99.90;;;;;;5051242;28;20063;-78
2020/12/06 12:09:40;;;;;;;24.92;12.65;;;5.10;99.90;;;;;;5050767;28;20481;-77
2020/12/06 12:12:06;;;;;;;28.08;12.73;;;5.10;99.90;;;;;;5046350;28;20041;-77
2020/12/06 12:14:32;;;;;;;26.30;13.75;;;5.10;99.90;;;;;;5036813;28;20179;-77
2020/12/06 12:16:57;;;;;;;23.63;12.13;;;5.10;99.90;;;;;;5046056;28;20032;-78
2020/12/06 12:19:23;;;;;;;25.38;12.88;;;5.10;99.90;;;;;;5054689;28;20049;-78
2020/12/06 12:21:48;;;;;;;22.38;11.68;;;5.20;99.90;;;;;;5059902;28;20473;-78
2020/12/06 12:24:14;;;;;;;25.30;12.65;;;5.20;99.90;;;;;;5046123;28;20025;-79
2020/12/06 12:26:40;;;;;;;25.75;13.27;;;5.30;99.90;;;;;;5048313;28;20401;-78
2020/12/06 12:29:05;;;;;;;24.73;13.15;;;5.30;99.90;;;;;;5053957;28;20471;-78
2020/12/06 12:31:32;;;;;;;25.50;13.88;;;5.30;99.90;;;;;;5054457;28;20056;-78
2020/12/06 12:33:58;;;;;;;24.63;13.55;;;5.30;99.90;;;;;;5054763;28;20021;-78
2020/12/06 12:36:24;;;;;;;27.27;13.27;;;5.30;99.90;;;;;;5050151;28;20029;-78
2020/12/06 12:38:50;;;;;;;25.15;12.93;;;5.30;99.90;;;;;;5044826;28;20102;-78
2020/12/06 12:41:16;;;;;;;28.05;12.85;;;5.30;99.90;;;;;;5055246;28;20024;-78
2020/12/06 12:43:42;;;;;;;25.02;12.52;;;5.30;99.90;;;;;;5054728;28;20151;-77
2020/12/06 12:46:08;;;;;;;24.55;13.75;;;5.40;99.90;;;;;;5063781;28;20017;-77